createdAt,value
2019-04-11T00:01:33.974Z,15.15
2019-04-11T00:04:40.131Z,14.70
2019-04-11T00:06:19.808Z,16.15
2019-04-11T00:07:59.799Z,15.90
2019-04-11T00:09:39.361Z,17.20
2019-04-11T00:11:18.009Z,19.05
2019-04-11T00:12:59.099Z,19.20
2019-04-11T00:14:40.229Z,22.42
2019-04-11T00:16:21.406Z,18.20
2019-04-11T00:18:06.068Z,19.05
2019-04-11T00:19:43.959Z,16.73
2019-04-11T00:21:24.511Z,16.17
2019-04-11T00:23:04.271Z,15.95
2019-04-11T00:24:43.014Z,14.93
2019-04-11T00:26:22.428Z,16.52
2019-04-11T00:28:01.576Z,16.73
2019-04-11T00:29:40.719Z,16.57
2019-04-11T00:31:20.902Z,16.40
2019-04-11T00:33:02.143Z,14.45
2019-04-11T00:34:40.152Z,16.15
2019-04-11T00:36:20.013Z,14.90
2019-04-11T00:38:01.290Z,15.20
2019-04-11T00:39:40.285Z,14.87
2019-04-11T00:41:18.309Z,14.93
2019-04-11T00:42:57.222Z,15.05
2019-04-11T00:44:38.942Z,14.63
2019-04-11T00:46:20.381Z,15.45
2019-04-11T00:47:59.707Z,15.80
2019-04-11T00:49:42.875Z,15.40
2019-04-11T00:51:25.699Z,13.50
2019-04-11T00:53:05.577Z,15.65
2019-04-11T00:54:45.100Z,14.63
2019-04-11T00:56:24.405Z,15.48
2019-04-11T00:58:03.705Z,14.20
2019-04-11T00:59:43.224Z,15.25
2019-04-11T01:01:23.974Z,14.07
2019-04-11T01:03:04.959Z,15.43
2019-04-11T01:04:43.802Z,13.48
2019-04-11T01:06:24.044Z,14.50
2019-04-11T01:08:03.262Z,14.40
2019-04-11T01:09:42.284Z,15.48
2019-04-11T01:11:25.948Z,15.80
2019-04-11T01:13:05.133Z,14.45
2019-04-11T01:14:45.556Z,14.00
2019-04-11T01:16:40.946Z,14.15
2019-04-11T01:18:25.634Z,14.28
2019-04-11T01:20:07.640Z,13.35
2019-04-11T01:21:46.719Z,12.95
2019-04-11T01:23:27.071Z,12.88
2019-04-11T01:25:13.237Z,12.33
2019-04-11T01:26:54.425Z,13.58
2019-04-11T01:28:35.072Z,13.55
2019-04-11T01:30:16.863Z,13.08
2019-04-11T01:31:58.086Z,13.40
2019-04-11T01:33:38.649Z,13.45
2019-04-11T01:35:23.531Z,15.45
2019-04-11T01:37:07.234Z,15.05
2019-04-11T01:38:52.895Z,14.93
2019-04-11T01:40:32.401Z,16.45
2019-04-11T01:42:13.248Z,17.98
2019-04-11T01:44:00.966Z,13.72
2019-04-11T01:45:38.413Z,13.78
2019-04-11T01:47:22.540Z,14.18
2019-04-11T01:49:06.011Z,14.65
2019-04-11T01:50:45.250Z,15.78
2019-04-11T01:52:24.547Z,14.38
2019-04-11T01:54:03.682Z,15.63
2019-04-11T01:55:42.916Z,16.12
2019-04-11T01:57:25.948Z,16.10
2019-04-11T01:59:07.008Z,14.75
2019-04-11T02:00:50.926Z,15.18
2019-04-11T02:02:42.947Z,16.82
2019-04-11T02:04:30.400Z,16.27
2019-04-11T02:06:12.245Z,15.55
2019-04-11T02:07:53.311Z,15.80
2019-04-11T02:09:35.835Z,17.65
2019-04-11T02:11:19.702Z,15.98
2019-04-11T02:13:01.735Z,15.80
2019-04-11T02:14:43.905Z,17.95
2019-04-11T02:16:25.133Z,15.78
2019-04-11T02:18:05.368Z,15.50
2019-04-11T02:19:48.062Z,16.32
2019-04-11T02:21:27.470Z,14.98
2019-04-11T02:23:13.210Z,14.70
2019-04-11T02:26:41.402Z,14.85
2019-04-11T02:28:25.222Z,17.02
2019-04-11T02:30:05.512Z,16.80
2019-04-11T02:31:48.080Z,17.37
2019-04-11T02:33:27.834Z,19.62
2019-04-11T02:35:11.144Z,19.67
2019-04-11T02:36:51.340Z,19.48
2019-04-11T02:38:32.441Z,19.35
2019-04-11T02:40:15.349Z,18.17
2019-04-11T02:41:56.946Z,19.48
2019-04-11T02:43:38.455Z,18.67
2019-04-11T02:45:31.087Z,17.95
2019-04-11T02:47:18.517Z,18.50
2019-04-11T02:48:54.492Z,18.82
2019-04-11T02:50:37.162Z,18.55
2019-04-11T02:52:19.453Z,19.45
2019-04-11T02:54:04.631Z,18.57
2019-04-11T02:55:46.624Z,19.35
2019-04-11T02:57:26.464Z,20.62
2019-04-11T02:59:06.819Z,19.87
2019-04-11T03:00:45.920Z,20.85
2019-04-11T03:02:26.671Z,21.00
2019-04-11T03:04:07.410Z,21.65
2019-04-11T03:05:47.059Z,19.82
2019-04-11T03:07:27.170Z,20.27
2019-04-11T03:09:07.098Z,21.07
2019-04-11T03:10:49.121Z,20.72
2019-04-11T03:12:31.944Z,19.50
2019-04-11T03:14:14.157Z,19.37
2019-04-11T03:16:11.378Z,19.45
2019-04-11T03:17:42.798Z,20.40
2019-04-11T03:19:37.582Z,19.15
2019-04-11T03:21:13.065Z,19.82
2019-04-11T03:22:57.005Z,18.48
2019-04-11T03:24:35.286Z,19.90
2019-04-11T03:26:16.934Z,18.30
2019-04-11T03:27:58.997Z,17.37
2019-04-11T03:29:43.183Z,18.07
2019-04-11T03:32:05.290Z,19.20
2019-04-11T03:35:51.794Z,18.70
2019-04-11T03:38:42.631Z,18.62
2019-04-11T03:40:27.082Z,20.60
2019-04-11T03:42:07.353Z,22.25
2019-04-11T03:43:45.809Z,21.20
2019-04-11T03:45:38.137Z,19.90
2019-04-11T03:47:18.083Z,20.55
2019-04-11T03:49:00.555Z,20.68
2019-04-11T03:50:34.889Z,19.12
2019-04-11T03:52:17.265Z,19.57
2019-04-11T03:53:56.902Z,20.32
2019-04-11T03:55:37.158Z,19.75
2019-04-11T03:57:29.932Z,19.70
2019-04-11T04:01:10.554Z,21.48
2019-04-11T04:02:55.274Z,19.95
2019-04-11T04:04:39.300Z,20.70
2019-04-11T04:06:19.225Z,18.85
2019-04-11T04:08:04.537Z,20.15
2019-04-11T04:09:45.973Z,20.68
2019-04-11T04:11:30.492Z,19.70
2019-04-11T04:13:16.167Z,19.73
2019-04-11T04:14:53.711Z,19.77
2019-04-11T04:16:40.890Z,19.87
2019-04-11T04:18:16.580Z,19.42
2019-04-11T04:20:05.118Z,20.35
2019-04-11T04:21:46.851Z,20.40
2019-04-11T04:23:27.338Z,19.75
2019-04-11T04:25:06.353Z,20.50
2019-04-11T04:26:44.563Z,19.73
2019-04-11T04:28:23.705Z,19.82
2019-04-11T04:30:05.100Z,19.62
2019-04-11T04:31:43.050Z,20.05
2019-04-11T04:33:23.058Z,20.37
2019-04-11T04:35:01.774Z,20.30
2019-04-11T04:36:42.229Z,19.32
2019-04-11T04:38:21.159Z,19.95
2019-04-11T04:40:20.953Z,21.25
2019-04-11T04:41:49.527Z,17.45
2019-04-11T04:43:25.098Z,18.67
2019-04-11T04:45:04.811Z,20.00
2019-04-11T04:46:58.679Z,19.65
2019-04-11T04:48:26.709Z,18.82
2019-04-11T04:50:06.471Z,19.42
2019-04-11T04:51:47.741Z,17.45
2019-04-11T04:53:28.257Z,18.77
2019-04-11T04:55:06.347Z,20.77
2019-04-11T04:56:46.945Z,19.50
2019-04-11T05:01:06.814Z,18.82
2019-04-11T05:02:52.391Z,18.62
2019-04-11T05:04:31.789Z,19.20
2019-04-11T05:06:21.563Z,18.55
2019-04-11T05:08:11.060Z,19.02
2019-04-11T05:09:50.318Z,18.67
2019-04-11T05:11:33.862Z,19.25
2019-04-11T05:13:13.629Z,18.42
2019-04-11T05:14:59.179Z,19.35
2019-04-11T05:16:41.699Z,20.05
2019-04-11T05:18:25.931Z,20.65
2019-04-11T05:20:12.067Z,20.72
2019-04-11T05:21:59.793Z,20.40
2019-04-11T05:24:20.928Z,19.50
2019-04-11T05:28:06.886Z,21.00
2019-04-11T05:29:45.903Z,20.72
2019-04-11T05:31:24.861Z,22.22
2019-04-11T05:33:04.042Z,21.93
2019-04-11T05:34:41.529Z,21.33
2019-04-11T05:36:20.671Z,19.50
2019-04-11T05:37:59.922Z,20.75
2019-04-11T05:39:46.685Z,21.33
2019-04-11T05:41:33.591Z,21.48
2019-04-11T05:43:17.281Z,20.50
2019-04-11T06:17:09.222Z,20.65
2019-04-11T06:19:04.145Z,17.92
2019-04-11T06:20:51.844Z,19.52
2019-04-11T06:22:31.872Z,16.27
2019-04-11T06:24:16.310Z,19.25
2019-04-11T06:25:57.608Z,20.23
2019-04-11T06:27:42.209Z,18.92
2019-04-11T06:29:25.922Z,19.57
2019-04-11T06:31:20.158Z,20.32
2019-04-11T06:33:00.373Z,17.77
2019-04-11T06:34:53.088Z,18.05
2019-04-11T06:36:39.078Z,17.95
2019-04-11T06:38:28.866Z,19.30
2019-04-11T06:40:18.041Z,23.00
2019-04-11T06:42:01.206Z,21.97
2019-04-11T06:43:49.984Z,22.73
2019-04-11T06:45:46.224Z,24.75
2019-04-11T06:47:32.794Z,24.45
2019-04-11T06:49:22.852Z,19.75
2019-04-11T06:51:06.689Z,21.30
2019-04-11T06:52:46.108Z,24.92
2019-04-11T06:56:23.548Z,23.27
2019-04-11T06:58:12.936Z,20.05
2019-04-11T06:59:56.686Z,21.75
2019-04-11T07:01:38.412Z,21.60
2019-04-11T07:03:23.159Z,21.77
2019-04-11T07:06:51.693Z,19.05
2019-04-11T07:08:32.119Z,19.30
2019-04-11T07:10:11.856Z,16.32
2019-04-11T07:11:53.186Z,14.83
2019-04-11T07:13:35.055Z,15.00
2019-04-11T07:15:21.092Z,14.45
2019-04-11T07:17:18.904Z,12.23
2019-04-11T07:18:58.996Z,11.28
2019-04-11T07:20:47.235Z,13.62
2019-04-11T07:22:44.031Z,12.50
2019-04-11T07:24:47.468Z,12.90
2019-04-11T07:26:33.088Z,11.65
2019-04-11T07:28:16.344Z,13.28
2019-04-11T07:29:57.074Z,13.58
2019-04-11T07:31:50.411Z,14.15
2019-04-11T07:33:56.348Z,15.00
2019-04-11T07:35:59.253Z,13.83
2019-04-11T07:37:36.787Z,12.82
2019-04-11T07:39:18.159Z,13.35
2019-04-11T07:41:19.446Z,13.68
2019-04-11T07:43:08.178Z,14.40
2019-04-11T07:44:47.266Z,15.78
2019-04-11T07:46:27.451Z,19.80
2019-04-11T07:48:17.198Z,21.10
2019-04-11T07:50:00.042Z,23.98
2019-04-11T07:51:40.740Z,23.60
2019-04-11T07:53:21.878Z,24.45
2019-04-11T07:55:02.608Z,25.20
2019-04-11T07:56:44.571Z,25.20
2019-04-11T07:58:25.236Z,26.17
2019-04-11T08:00:05.908Z,27.37
2019-04-11T08:01:59.309Z,29.20
2019-04-11T08:03:49.173Z,28.40
2019-04-11T08:05:50.120Z,27.95
2019-04-11T08:07:42.902Z,27.75
2019-04-11T08:09:33.478Z,27.77
2019-04-11T08:11:21.829Z,27.37
2019-04-11T08:13:14.899Z,25.92
2019-04-11T08:14:55.205Z,26.15
2019-04-11T08:16:37.557Z,25.17
2019-04-11T08:18:36.969Z,26.00
2019-04-11T08:20:23.977Z,26.00
2019-04-11T08:22:03.167Z,25.88
2019-04-11T08:23:43.817Z,24.52
2019-04-11T08:25:45.240Z,21.48
2019-04-11T08:27:49.809Z,22.30
2019-04-11T08:29:20.294Z,21.33
2019-04-11T08:31:15.080Z,21.15
2019-04-11T08:32:58.151Z,21.30
2019-04-11T08:34:56.047Z,20.50
2019-04-11T08:36:48.888Z,21.55
2019-04-11T08:38:29.905Z,20.37
2019-04-11T08:40:13.454Z,18.55
2019-04-11T08:41:54.816Z,18.00
2019-04-11T08:43:37.409Z,14.50
2019-04-11T08:45:25.986Z,15.50
2019-04-11T08:47:07.768Z,16.65
2019-04-11T08:48:49.469Z,18.30
2019-04-11T08:50:31.670Z,17.48
2019-04-11T08:52:11.785Z,17.62
2019-04-11T08:54:10.557Z,17.17
2019-04-11T08:55:56.213Z,16.07
2019-04-11T08:57:33.926Z,13.83
2019-04-11T08:59:39.707Z,13.88
2019-04-11T09:01:24.837Z,14.38
2019-04-11T09:03:23.871Z,12.70
2019-04-11T09:05:15.196Z,13.28
2019-04-11T09:06:51.147Z,13.15
2019-04-11T09:08:35.729Z,11.60
2019-04-11T09:10:35.935Z,11.57
2019-04-11T09:12:15.165Z,10.35
2019-04-11T09:14:13.786Z,11.12
2019-04-11T09:16:21.509Z,10.75
2019-04-11T09:18:06.069Z,9.40
2019-04-11T09:19:49.410Z,8.70
2019-04-11T09:21:48.727Z,8.88
2019-04-11T09:23:31.662Z,8.30
2019-04-11T09:25:33.437Z,7.05
2019-04-11T09:27:32.945Z,8.15
2019-04-11T09:29:13.651Z,6.60
2019-04-11T09:31:15.193Z,7.58
2019-04-11T09:33:20.984Z,7.72
2019-04-11T09:35:01.870Z,6.72
2019-04-11T09:36:45.083Z,6.05
2019-04-11T09:38:32.700Z,6.47
2019-04-11T09:40:31.961Z,6.30
2019-04-11T09:42:23.097Z,6.25
2019-04-11T09:44:15.182Z,6.08
2019-04-11T09:46:02.432Z,6.25
2019-04-11T09:47:48.213Z,7.58
2019-04-11T09:49:39.707Z,6.10
2019-04-11T09:51:19.064Z,6.58
2019-04-11T09:53:01.476Z,5.75
2019-04-11T09:55:15.013Z,6.67
2019-04-11T09:57:13.130Z,6.05
2019-04-11T09:59:08.651Z,5.78
2019-04-11T10:01:10.433Z,6.12
2019-04-11T10:02:58.689Z,5.15
2019-04-11T10:04:42.032Z,5.30
2019-04-11T10:06:23.839Z,5.10
2019-04-11T10:10:28.960Z,6.08
2019-04-11T10:12:29.510Z,5.15
2019-04-11T10:14:11.769Z,5.28
2019-04-11T10:15:53.760Z,5.60
2019-04-11T10:17:43.594Z,6.35
2019-04-11T10:19:34.498Z,5.95
2019-04-11T10:21:17.252Z,5.62
2019-04-11T10:23:12.843Z,5.25
2019-04-11T10:25:12.817Z,4.75
2019-04-11T10:26:56.626Z,5.03
2019-04-11T10:28:37.498Z,5.20
2019-04-11T10:30:33.716Z,4.78
2019-04-11T10:32:21.301Z,4.30
2019-04-11T10:34:18.160Z,4.53
2019-04-11T10:36:07.413Z,5.50
2019-04-11T10:37:49.754Z,5.62
2019-04-11T10:39:39.626Z,5.67
2019-04-11T10:41:28.459Z,5.55
2019-04-11T10:43:08.353Z,6.28
2019-04-11T10:45:02.725Z,5.53
2019-04-11T10:46:49.634Z,5.22
2019-04-11T10:48:38.743Z,4.65
2019-04-11T10:50:11.199Z,5.53
2019-04-11T10:51:51.032Z,5.47
2019-04-11T10:53:29.494Z,4.95
2019-04-11T10:55:25.994Z,4.75
2019-04-11T10:57:11.924Z,4.85
2019-04-11T10:58:51.799Z,5.37
2019-04-11T11:00:31.952Z,5.05
2019-04-11T11:04:07.335Z,5.17
2019-04-11T11:05:57.600Z,5.35
2019-04-11T11:07:36.973Z,6.15
2019-04-11T11:09:22.049Z,5.80
2019-04-11T11:11:08.182Z,4.62
2019-04-11T11:13:04.238Z,5.05
2019-04-11T11:15:03.491Z,6.15
2019-04-11T11:16:45.449Z,6.45
2019-04-11T11:19:13.951Z,6.33
2019-04-11T11:20:48.122Z,6.28
2019-04-11T11:22:34.482Z,6.97
2019-04-11T11:24:31.579Z,6.70
2019-04-11T11:26:22.577Z,7.42
2019-04-11T11:28:03.216Z,7.80
2019-04-11T11:29:42.959Z,7.65
2019-04-11T11:31:40.758Z,7.35
2019-04-11T11:33:22.198Z,7.08
2019-04-11T11:35:05.396Z,7.65
2019-04-11T11:36:56.666Z,7.67
2019-04-11T11:38:37.734Z,7.65
2019-04-11T11:40:28.008Z,6.30
2019-04-11T11:42:28.085Z,5.47
2019-04-11T11:44:11.754Z,5.53
2019-04-11T11:45:56.602Z,6.22
2019-04-11T11:47:48.950Z,6.45
2019-04-11T11:49:44.792Z,5.90
2019-04-11T11:51:17.362Z,5.22
2019-04-11T11:53:16.424Z,5.53
2019-04-11T11:54:58.456Z,5.35
2019-04-11T11:56:42.466Z,5.37
2019-04-11T11:58:44.184Z,5.75
2019-04-11T12:00:25.075Z,6.12
2019-04-11T12:02:19.798Z,6.53
2019-04-11T12:04:14.802Z,6.20
2019-04-11T12:05:56.681Z,5.35
2019-04-11T12:07:43.102Z,6.20
2019-04-11T12:09:44.704Z,5.37
2019-04-11T12:11:26.886Z,5.28
2019-04-11T12:13:26.364Z,5.00
2019-04-11T12:15:27.258Z,4.55
2019-04-11T12:17:12.870Z,4.67
2019-04-11T12:19:30.117Z,5.03
2019-04-11T12:21:16.332Z,6.05
2019-04-11T12:22:58.990Z,5.83
2019-04-11T12:24:58.708Z,6.37
2019-04-11T12:26:47.024Z,6.28
2019-04-11T12:28:47.881Z,5.58
2019-04-11T12:30:32.811Z,4.62
2019-04-11T12:32:14.789Z,5.37
2019-04-11T12:34:12.407Z,4.62
2019-04-11T12:35:54.768Z,4.75
2019-04-11T15:23:47.251Z,7.55
2019-04-11T15:25:31.136Z,7.22
2019-04-11T15:27:10.767Z,7.37
2019-04-11T15:28:54.573Z,6.60
2019-04-11T15:30:39.726Z,8.53
2019-04-11T15:32:18.776Z,7.80
2019-04-11T15:34:15.894Z,6.90
2019-04-11T15:35:58.676Z,7.37
2019-04-11T15:37:59.065Z,7.50
2019-04-11T15:39:55.774Z,7.92
2019-04-11T15:41:33.895Z,7.87
2019-04-11T15:43:22.862Z,8.13
2019-04-11T15:45:08.888Z,7.75
2019-04-11T15:46:47.900Z,8.20
2019-04-11T15:48:43.389Z,7.90
2019-04-11T15:53:06.563Z,8.05
2019-04-11T15:55:05.412Z,7.67
2019-04-11T15:57:04.104Z,8.53
2019-04-11T15:58:52.495Z,8.78
2019-04-11T16:00:44.891Z,8.60
2019-04-11T16:02:56.774Z,8.13
2019-04-11T16:04:38.096Z,8.93
2019-04-11T16:06:39.073Z,11.95
2019-04-11T16:08:43.674Z,12.15
2019-04-11T16:14:41.608Z,13.45
2019-04-11T16:16:27.735Z,11.63
2019-04-11T16:18:34.480Z,12.50
2019-04-11T16:20:18.851Z,10.20
2019-04-11T16:22:03.216Z,12.73
2019-04-11T16:24:02.997Z,11.73
2019-04-11T16:25:45.767Z,12.47
2019-04-11T16:27:36.616Z,10.45
2019-04-11T16:29:19.164Z,12.98
2019-04-11T16:30:58.654Z,12.05
2019-04-11T16:32:38.725Z,12.95
2019-04-11T16:34:34.531Z,11.85
2019-04-11T16:36:18.297Z,12.65
2019-04-11T16:38:12.156Z,12.88
2019-04-11T16:40:10.326Z,13.90
2019-04-11T16:41:57.757Z,12.68
2019-04-11T16:43:39.066Z,12.13
2019-04-11T16:45:25.750Z,12.15
2019-04-11T16:48:57.015Z,11.50
2019-04-11T16:50:36.421Z,10.63
2019-04-11T16:52:14.172Z,12.15
2019-04-11T16:53:52.115Z,11.75
2019-04-11T16:55:30.313Z,11.73
2019-04-11T16:57:08.135Z,10.68
2019-04-11T16:58:49.326Z,14.98
2019-04-11T17:00:25.462Z,12.75
2019-04-11T17:02:03.359Z,11.97
2019-04-11T17:03:40.877Z,13.40
2019-04-11T17:05:19.321Z,13.60
2019-04-11T17:06:58.720Z,14.10
2019-04-11T17:08:38.106Z,13.10
2019-04-11T17:10:16.770Z,13.48
2019-04-11T17:11:56.598Z,12.10
2019-04-11T17:13:35.661Z,13.78
2019-04-11T17:15:13.568Z,13.70
2019-04-11T17:16:51.259Z,13.10
2019-04-11T17:18:28.846Z,13.30
2019-04-11T17:20:10.299Z,12.43
2019-04-11T17:21:48.924Z,12.95
2019-04-11T17:23:27.931Z,13.93
2019-04-11T17:25:06.581Z,13.10
2019-04-11T17:26:44.371Z,13.43
2019-04-11T17:28:24.171Z,13.43
2019-04-11T17:30:01.769Z,13.32
2019-04-11T17:31:40.432Z,12.65
2019-04-11T17:33:18.727Z,12.68
2019-04-11T17:34:56.710Z,13.90
2019-04-11T17:36:35.123Z,13.55
2019-04-11T17:38:13.041Z,14.55
2019-04-11T17:39:50.916Z,13.85
